createdAt,value
2023-03-02T00:01:25.903Z,55.70
2023-03-02T00:03:53.890Z,56.20
2023-03-02T00:06:21.391Z,62.40
2023-03-02T00:08:48.399Z,52.40
2023-03-02T00:11:15.737Z,60.00
2023-03-02T00:13:43.543Z,56.70
2023-03-02T00:16:10.299Z,66.10
2023-03-02T00:18:37.556Z,76.80
2023-03-02T00:21:04.491Z,70.00
2023-03-02T00:23:31.132Z,105.20
2023-03-02T00:25:57.882Z,106.40
2023-03-02T00:28:24.587Z,124.30
2023-03-02T00:30:51.185Z,127.50
2023-03-02T00:33:19.340Z,126.60
2023-03-02T00:35:46.730Z,129.20
2023-03-02T00:38:13.381Z,117.40
2023-03-02T00:40:45.268Z,90.60
2023-03-02T00:43:12.711Z,82.10
2023-03-02T00:45:39.335Z,75.10
2023-03-02T00:48:06.529Z,71.40
2023-03-02T00:50:38.689Z,66.40
2023-03-02T00:53:05.213Z,57.10
2023-03-02T00:55:32.153Z,67.20
2023-03-02T00:57:58.895Z,62.90
2023-03-02T01:00:28.439Z,68.40
2023-03-02T01:02:57.468Z,65.90
2023-03-02T01:05:24.426Z,60.80
2023-03-02T01:07:51.427Z,66.90
2023-03-02T01:10:18.332Z,60.90
2023-03-02T01:12:45.147Z,55.50
2023-03-02T01:15:12.116Z,49.60
2023-03-02T01:17:40.717Z,59.10
2023-03-02T01:20:08.425Z,60.20
2023-03-02T01:22:38.332Z,52.40
2023-03-02T01:25:06.162Z,58.50
2023-03-02T01:27:32.943Z,58.20
2023-03-02T01:29:59.568Z,57.70
2023-03-02T01:32:26.714Z,57.30
2023-03-02T01:34:54.154Z,57.70
2023-03-02T01:37:22.348Z,55.90
2023-03-02T01:39:50.189Z,51.60
2023-03-02T01:42:17.268Z,57.60
2023-03-02T01:44:46.588Z,54.70
2023-03-02T01:47:16.132Z,56.70
2023-03-02T01:50:02.848Z,54.80
2023-03-02T01:52:37.617Z,55.30
2023-03-02T01:55:08.269Z,49.00
2023-03-02T01:57:42.945Z,55.10
2023-03-02T02:00:14.056Z,52.40
2023-03-02T02:02:41.508Z,54.50
2023-03-02T02:05:15.307Z,58.20
2023-03-02T02:07:43.241Z,52.30
2023-03-02T02:10:11.942Z,52.60
2023-03-02T02:12:38.726Z,54.00
2023-03-02T02:15:06.467Z,55.50
2023-03-02T02:17:34.072Z,49.60
2023-03-02T02:20:23.509Z,50.20
2023-03-02T02:23:18.837Z,50.40
2023-03-02T02:26:34.920Z,50.70
2023-03-02T02:29:05.555Z,51.70
2023-03-02T02:31:35.156Z,50.10
2023-03-02T02:34:41.098Z,47.90
2023-03-02T02:37:14.608Z,46.10
2023-03-02T02:39:45.619Z,46.20
2023-03-02T02:42:19.058Z,46.60
2023-03-02T02:44:47.226Z,61.80
2023-03-02T02:47:20.458Z,57.10
2023-03-02T02:49:51.287Z,53.50
2023-03-02T02:52:21.323Z,57.60
2023-03-02T02:54:51.354Z,61.90
2023-03-02T02:57:21.055Z,56.80
2023-03-02T02:59:50.590Z,64.00
2023-03-02T03:02:24.823Z,59.70
2023-03-02T03:05:02.851Z,63.60
2023-03-02T03:07:32.574Z,62.50
2023-03-02T03:10:18.553Z,67.40
2023-03-02T03:12:46.820Z,64.40
2023-03-02T03:15:15.923Z,81.00
2023-03-02T03:17:56.323Z,69.30
2023-03-02T03:20:24.824Z,72.80
2023-03-02T03:22:55.109Z,61.50
2023-03-02T03:25:27.935Z,70.40
2023-03-02T03:27:54.852Z,63.70
2023-03-02T03:30:22.080Z,56.80
2023-03-02T03:32:49.172Z,68.50
2023-03-02T03:35:16.181Z,64.00
2023-03-02T03:37:42.968Z,61.10
2023-03-02T03:40:10.705Z,68.60
2023-03-02T03:42:39.461Z,65.60
2023-03-02T03:45:08.282Z,62.40
2023-03-02T03:47:36.420Z,69.20
2023-03-02T03:50:03.771Z,64.30
2023-03-02T03:52:31.238Z,69.90
2023-03-02T03:55:05.142Z,69.80
2023-03-02T03:57:32.501Z,68.80
2023-03-02T03:59:59.266Z,71.90
2023-03-02T04:02:26.847Z,71.50
2023-03-02T04:04:53.755Z,91.10
2023-03-02T04:07:20.893Z,91.70
2023-03-02T04:09:47.799Z,98.80
2023-03-02T04:12:15.873Z,88.60
2023-03-02T04:14:47.123Z,84.80
2023-03-02T04:17:14.176Z,79.00
2023-03-02T04:19:45.117Z,73.90
2023-03-02T04:22:11.752Z,68.90
2023-03-02T04:24:38.453Z,81.50
2023-03-02T04:27:05.467Z,84.10
2023-03-02T04:29:34.762Z,78.50
2023-03-02T04:32:04.056Z,80.90
2023-03-02T04:34:33.231Z,77.30
2023-03-02T04:37:00.618Z,76.20
2023-03-02T04:39:27.438Z,74.70
2023-03-02T04:41:54.675Z,75.50
2023-03-02T04:44:21.842Z,80.50
2023-03-02T04:46:50.039Z,75.90
2023-03-02T04:49:19.291Z,92.50
2023-03-02T06:17:52.489Z,64.70
2023-03-02T06:20:19.905Z,70.30
2023-03-02T06:22:46.505Z,71.40
2023-03-02T06:25:16.464Z,74.70
2023-03-02T06:27:43.847Z,66.10
2023-03-02T06:30:14.138Z,69.30
2023-03-02T06:32:41.403Z,68.70
2023-03-02T06:35:09.254Z,75.80
2023-03-02T06:37:36.369Z,76.00
2023-03-02T06:40:11.380Z,72.20
2023-03-02T06:42:39.116Z,73.50
2023-03-02T06:45:06.843Z,77.90
2023-03-02T06:47:34.270Z,83.30
2023-03-02T06:50:01.816Z,71.30
2023-03-02T06:52:28.790Z,83.10
2023-03-02T06:54:55.946Z,85.30
2023-03-02T06:57:23.072Z,78.80
2023-03-02T06:59:49.839Z,74.60
2023-03-02T07:02:16.510Z,72.90
2023-03-02T07:04:43.327Z,75.90
2023-03-02T07:07:10.305Z,73.20
2023-03-02T07:09:37.510Z,82.00
2023-03-02T07:12:04.464Z,106.50
2023-03-02T07:14:31.022Z,101.00
2023-03-02T07:16:59.705Z,85.00
2023-03-02T07:19:26.510Z,77.80
2023-03-02T07:21:53.104Z,70.00
2023-03-02T07:24:19.996Z,67.50
2023-03-02T07:26:46.770Z,63.70
2023-03-02T07:29:13.431Z,74.30
2023-03-02T07:31:40.255Z,78.20
2023-03-02T07:34:07.105Z,78.30
2023-03-02T07:36:33.710Z,69.70
2023-03-02T07:39:02.956Z,74.30
2023-03-02T07:41:29.663Z,74.00
2023-03-02T07:43:56.836Z,70.30
2023-03-02T07:46:23.838Z,66.90
2023-03-02T07:48:51.538Z,64.10
2023-03-02T07:51:18.403Z,62.90
2023-03-02T07:53:45.119Z,58.10
2023-03-02T07:56:12.068Z,59.70
2023-03-02T07:58:38.773Z,65.10
2023-03-02T08:01:05.585Z,73.30
2023-03-02T08:03:32.646Z,86.30
2023-03-02T08:06:07.805Z,78.50
2023-03-02T08:08:35.744Z,85.20
2023-03-02T08:11:11.334Z,72.20
2023-03-02T08:13:38.225Z,81.50
2023-03-02T08:16:06.938Z,87.20
2023-03-02T08:18:34.673Z,87.00
2023-03-02T08:21:02.723Z,76.90
2023-03-02T08:23:29.540Z,68.10
2023-03-02T08:25:56.512Z,65.30
2023-03-02T08:28:24.141Z,72.40
2023-03-02T08:30:55.930Z,63.20
2023-03-02T08:33:23.258Z,64.10
2023-03-02T08:36:02.094Z,88.90
2023-03-02T08:38:29.995Z,70.40
2023-03-02T08:40:57.285Z,63.10
2023-03-02T08:43:25.228Z,59.20
2023-03-02T08:45:59.001Z,54.20
2023-03-02T08:48:27.211Z,57.00
2023-03-02T08:50:57.725Z,51.00
2023-03-02T08:53:25.318Z,55.30
2023-03-02T08:55:52.436Z,56.30
2023-03-02T08:58:19.118Z,45.90
2023-03-02T09:00:46.143Z,41.80
2023-03-02T09:03:13.087Z,37.80
2023-03-02T09:05:39.975Z,42.40
2023-03-02T09:08:07.837Z,40.80
2023-03-02T09:10:35.651Z,42.50
2023-03-02T09:13:02.259Z,47.90
2023-03-02T09:15:29.120Z,45.40
2023-03-02T09:17:56.310Z,42.70
2023-03-02T09:20:23.073Z,48.70
2023-03-02T09:22:50.480Z,47.00
2023-03-02T09:25:18.308Z,33.40
2023-03-02T09:27:46.534Z,42.80
2023-03-02T09:30:14.507Z,34.10
2023-03-02T09:32:41.990Z,42.80
2023-03-02T09:35:08.852Z,42.20
2023-03-02T09:37:38.371Z,27.90
2023-03-02T09:40:16.137Z,20.60
2023-03-02T09:42:49.064Z,17.50
2023-03-02T09:45:31.290Z,19.70
2023-03-02T09:48:25.215Z,22.00
2023-03-02T09:51:06.955Z,21.30
2023-03-02T09:53:51.773Z,20.30
2023-03-02T09:56:20.475Z,18.40
2023-03-02T09:58:53.630Z,17.60
2023-03-02T10:01:42.195Z,14.90
2023-03-02T10:04:21.413Z,13.40
2023-03-02T10:06:55.032Z,13.10
2023-03-02T10:09:21.902Z,12.10
2023-03-02T10:12:00.471Z,25.00
2023-03-02T10:14:34.935Z,21.10
2023-03-02T10:17:21.238Z,12.40
2023-03-02T10:20:01.188Z,10.70
2023-03-02T10:22:42.489Z,10.90
2023-03-02T10:25:37.610Z,10.50
2023-03-02T10:28:28.012Z,13.50
2023-03-02T10:31:09.568Z,13.20
2023-03-02T10:33:45.459Z,14.50
2023-03-02T10:36:23.737Z,11.50
2023-03-02T10:38:52.014Z,11.60
2023-03-02T10:41:28.053Z,11.50
2023-03-02T10:44:03.917Z,14.40
2023-03-02T10:46:42.176Z,12.60
2023-03-02T10:49:24.548Z,11.50
2023-03-02T10:52:05.955Z,10.60
2023-03-02T10:54:34.820Z,9.60
2023-03-02T10:57:05.071Z,10.60
2023-03-02T10:59:43.232Z,10.80
2023-03-02T11:02:15.474Z,14.20
2023-03-02T11:04:42.801Z,16.50
2023-03-02T11:07:19.233Z,17.00
2023-03-02T11:10:18.851Z,12.30
2023-03-02T11:12:48.071Z,13.20
2023-03-02T11:15:29.245Z,12.50
2023-03-02T11:18:06.012Z,16.50
2023-03-02T11:20:43.066Z,15.50
2023-03-02T11:23:19.253Z,19.30
2023-03-02T11:25:56.548Z,21.70
2023-03-02T11:28:45.378Z,18.70
2023-03-02T11:31:22.060Z,19.00
2023-03-02T11:34:15.649Z,17.70
2023-03-02T11:37:11.559Z,11.50
2023-03-02T11:40:00.696Z,15.50
2023-03-02T11:42:30.234Z,19.60
2023-03-02T11:45:01.345Z,17.50
2023-03-02T11:47:31.319Z,22.90
2023-03-02T11:50:04.499Z,23.40
2023-03-02T11:52:36.151Z,27.50
2023-03-02T11:55:13.628Z,27.60
2023-03-02T11:57:48.253Z,31.50
2023-03-02T12:00:31.005Z,33.40
2023-03-02T12:03:17.574Z,40.00
2023-03-02T12:05:57.786Z,36.40
2023-03-02T12:08:24.510Z,33.80
2023-03-02T12:11:08.370Z,33.40
2023-03-02T12:13:40.049Z,36.70
2023-03-02T12:16:34.283Z,38.80
2023-03-02T12:19:25.591Z,36.00
2023-03-02T12:22:01.929Z,37.10
2023-03-02T12:24:34.968Z,38.90
2023-03-02T12:27:04.828Z,42.70
2023-03-02T12:29:44.397Z,42.00
2023-03-02T12:32:26.682Z,37.70
2023-03-02T12:35:08.914Z,40.20
2023-03-02T12:37:46.853Z,42.90
2023-03-02T12:40:33.323Z,42.00
2023-03-02T12:43:23.559Z,43.60
2023-03-02T12:45:59.318Z,38.50
2023-03-02T12:48:50.454Z,40.30
2023-03-02T12:51:25.610Z,45.30
2023-03-02T12:54:29.780Z,41.80
2023-03-02T12:57:06.603Z,38.30
2023-03-02T12:59:35.990Z,42.50
2023-03-02T13:02:28.283Z,41.50
2023-03-02T13:05:01.451Z,40.40
2023-03-02T13:07:36.346Z,39.30
2023-03-02T13:10:29.022Z,41.00
2023-03-02T13:12:57.749Z,39.50
2023-03-02T13:15:25.078Z,34.50
2023-03-02T13:17:55.024Z,35.00
2023-03-02T13:20:24.760Z,35.10
2023-03-02T13:22:51.762Z,36.40
2023-03-02T13:25:26.354Z,35.10
2023-03-02T13:28:10.570Z,31.80
2023-03-02T13:30:43.163Z,35.80
2023-03-02T13:33:23.152Z,34.70
2023-03-02T13:35:50.266Z,38.80
2023-03-02T13:38:19.222Z,36.00
2023-03-02T13:40:51.235Z,35.40
2023-03-02T13:43:38.931Z,36.70
2023-03-02T13:46:28.316Z,34.30
2023-03-02T13:49:10.131Z,36.80
2023-03-02T13:51:41.099Z,34.00
2023-03-02T13:54:25.220Z,36.60
2023-03-02T13:56:53.809Z,43.10
2023-03-02T13:59:21.779Z,39.30
2023-03-02T14:01:49.172Z,37.80
2023-03-02T14:04:21.104Z,34.80
2023-03-02T14:06:52.088Z,38.20
2023-03-02T14:09:19.520Z,31.90
2023-03-02T14:11:52.786Z,35.10
2023-03-02T14:14:23.721Z,34.40
2023-03-02T14:16:50.656Z,29.50
2023-03-02T14:19:18.069Z,29.60
2023-03-02T14:21:45.837Z,28.60
2023-03-02T14:24:12.404Z,27.10
2023-03-02T14:26:49.801Z,28.00
2023-03-02T14:29:24.668Z,27.50
2023-03-02T14:31:52.780Z,31.30
2023-03-02T14:34:19.495Z,38.20
2023-03-02T14:36:50.492Z,32.00
2023-03-02T14:39:37.219Z,38.10
2023-03-02T14:42:06.432Z,33.20
2023-03-02T14:44:33.116Z,33.00
2023-03-02T14:46:59.952Z,33.70
2023-03-02T14:49:26.969Z,31.70
2023-03-02T14:52:33.685Z,38.60
2023-03-02T14:55:05.964Z,36.70
2023-03-02T14:57:38.124Z,34.50
2023-03-02T15:00:06.879Z,32.20
2023-03-02T15:02:34.493Z,37.90
2023-03-02T15:05:01.360Z,33.30
2023-03-02T15:07:28.450Z,39.20
2023-03-02T15:09:56.910Z,38.00
2023-03-02T15:12:24.392Z,39.20
2023-03-02T15:14:51.202Z,42.10
2023-03-02T15:17:18.982Z,36.80
2023-03-02T15:19:46.538Z,36.60
2023-03-02T15:22:13.409Z,48.70
2023-03-02T15:24:40.097Z,46.70
2023-03-02T15:27:07.184Z,40.40
2023-03-02T15:29:34.245Z,39.80
2023-03-02T15:32:00.926Z,33.00
2023-03-02T15:34:28.684Z,36.80
2023-03-02T15:36:55.413Z,43.00
2023-03-02T15:39:22.243Z,43.80
2023-03-02T15:41:49.354Z,36.20
2023-03-02T15:44:21.367Z,35.30
2023-03-02T15:46:56.597Z,30.60
2023-03-02T15:49:26.798Z,37.60
2023-03-02T15:51:57.646Z,39.10
2023-03-02T15:54:26.238Z,36.30
2023-03-02T15:56:53.084Z,38.90
2023-03-02T15:59:21.667Z,34.20
2023-03-02T16:01:49.296Z,40.10
2023-03-02T16:04:16.315Z,38.00
2023-03-02T16:06:44.123Z,41.80
2023-03-02T16:09:11.126Z,41.30
2023-03-02T16:11:38.004Z,36.90
2023-03-02T16:14:05.258Z,38.60
2023-03-02T16:16:32.480Z,31.80
2023-03-02T16:18:59.339Z,30.00
2023-03-02T16:21:28.236Z,31.30
2023-03-02T16:24:02.356Z,33.70
2023-03-02T16:26:29.157Z,29.80
2023-03-02T16:28:56.309Z,31.90
2023-03-02T16:31:26.065Z,32.70
2023-03-02T16:33:55.531Z,30.60
2023-03-02T16:36:22.514Z,31.20
2023-03-02T16:38:49.404Z,34.20
2023-03-02T16:41:21.714Z,33.80
2023-03-02T16:43:54.436Z,31.30
2023-03-02T16:46:23.226Z,27.80
2023-03-02T16:48:50.653Z,31.50
2023-03-02T16:51:19.115Z,32.50
2023-03-02T16:53:46.658Z,31.80
2023-03-02T16:56:14.957Z,33.10
2023-03-02T16:58:42.374Z,32.70
2023-03-02T17:01:15.892Z,32.10
2023-03-02T17:03:43.790Z,31.50
2023-03-02T17:06:12.898Z,32.40
2023-03-02T17:08:40.249Z,33.20
2023-03-02T17:11:10.118Z,33.70
2023-03-02T17:13:36.974Z,38.50
2023-03-02T17:16:04.142Z,37.80
2023-03-02T17:18:33.209Z,37.90
2023-03-02T17:21:00.437Z,34.90
2023-03-02T17:23:27.792Z,37.70
2023-03-02T17:25:55.483Z,36.90
2023-03-02T17:28:22.624Z,45.20
2023-03-02T17:30:49.560Z,48.10
2023-03-02T17:33:17.607Z,51.40
2023-03-02T17:35:45.600Z,55.00
2023-03-02T17:38:13.978Z,58.60
2023-03-02T17:40:44.130Z,71.90
2023-03-02T17:43:12.166Z,72.70
2023-03-02T17:45:39.258Z,61.10
2023-03-02T17:48:06.535Z,60.40
2023-03-02T17:50:34.142Z,52.30
2023-03-02T17:53:02.493Z,63.90
2023-03-02T17:55:33.107Z,68.90
2023-03-02T17:58:04.199Z,57.30
2023-03-02T18:00:30.994Z,70.10
2023-03-02T18:02:57.692Z,68.10
2023-03-02T18:05:25.220Z,77.40
2023-03-02T18:07:53.919Z,84.40
2023-03-02T18:10:20.585Z,87.10
2023-03-02T18:12:48.813Z,90.70
2023-03-02T18:15:16.455Z,89.20
2023-03-02T18:17:43.259Z,107.30
2023-03-02T18:20:10.699Z,96.90
2023-03-02T18:22:37.595Z,112.90
2023-03-02T18:25:05.289Z,114.80
2023-03-02T18:27:32.332Z,135.00
2023-03-02T18:29:59.029Z,141.80
2023-03-02T18:32:25.910Z,109.40
2023-03-02T18:34:52.972Z,123.90
2023-03-02T18:37:19.913Z,118.10
2023-03-02T18:39:47.380Z,123.80
2023-03-02T18:42:14.383Z,127.60
2023-03-02T18:44:41.128Z,139.20
2023-03-02T18:47:09.432Z,173.00
2023-03-02T18:49:37.818Z,177.40
2023-03-02T18:52:06.361Z,204.20
2023-03-02T18:54:33.862Z,223.80
2023-03-02T18:57:02.068Z,254.90
2023-03-02T18:59:29.323Z,228.00
2023-03-02T19:01:56.902Z,242.40
2023-03-02T19:04:26.607Z,215.40
2023-03-02T19:06:55.947Z,193.30
2023-03-02T19:09:23.201Z,205.00
2023-03-02T19:11:50.702Z,200.60
2023-03-02T19:14:17.706Z,204.80
2023-03-02T19:16:45.065Z,192.60
2023-03-02T19:19:12.112Z,185.60
2023-03-02T19:21:39.350Z,195.70
2023-03-02T19:24:07.676Z,161.70
2023-03-02T19:26:35.705Z,177.20
2023-03-02T19:29:03.137Z,186.60
2023-03-02T19:31:32.714Z,178.30
2023-03-02T19:33:59.876Z,185.30
2023-03-02T19:36:27.271Z,170.10
2023-03-02T19:38:53.957Z,193.20
2023-03-02T19:41:21.353Z,171.30
2023-03-02T19:43:48.491Z,191.50
2023-03-02T19:46:16.649Z,166.80
2023-03-02T19:48:44.117Z,177.80
2023-03-02T19:51:31.926Z,178.10
2023-03-02T19:54:04.160Z,165.40
2023-03-02T19:56:37.369Z,169.10
2023-03-02T19:59:04.600Z,164.30
2023-03-02T20:01:31.362Z,164.50
2023-03-02T20:03:59.544Z,154.30
2023-03-02T20:06:30.346Z,145.90
2023-03-02T20:09:00.942Z,151.50
2023-03-02T20:11:37.665Z,139.70
2023-03-02T20:14:04.676Z,145.70
2023-03-02T20:16:36.710Z,141.10
2023-03-02T20:19:22.023Z,129.60
2023-03-02T20:21:50.340Z,134.20
2023-03-02T20:24:17.290Z,132.80
2023-03-02T20:27:14.803Z,111.70
2023-03-02T20:29:44.817Z,109.70
2023-03-02T20:32:16.638Z,125.90
2023-03-02T20:34:52.236Z,121.20
2023-03-02T20:40:06.378Z,129.50
2023-03-02T20:42:59.798Z,120.40
2023-03-02T20:49:32.121Z,116.80
2023-03-02T20:52:36.588Z,114.60
2023-03-02T20:55:09.736Z,110.20
2023-03-02T20:57:37.085Z,118.60
2023-03-02T21:00:06.748Z,132.10
2023-03-02T21:02:33.690Z,125.70
2023-03-02T21:09:01.014Z,118.50
2023-03-02T21:11:46.764Z,128.10
2023-03-02T21:14:43.178Z,120.50
2023-03-02T21:17:09.813Z,113.20
2023-03-02T21:19:36.982Z,111.20
2023-03-02T21:22:04.747Z,122.50
2023-03-02T21:24:31.447Z,120.80
2023-03-02T21:27:00.777Z,139.80
2023-03-02T21:29:27.890Z,121.70
2023-03-02T21:31:55.309Z,119.50
2023-03-02T21:34:22.743Z,113.80
2023-03-02T21:37:08.327Z,121.20
2023-03-02T21:42:42.733Z,128.80
2023-03-02T21:45:11.794Z,127.80
2023-03-02T21:47:41.360Z,136.60
2023-03-02T21:53:07.308Z,132.00
2023-03-02T21:55:35.220Z,121.20
2023-03-02T21:58:03.997Z,132.60
2023-03-02T22:00:34.442Z,151.80
2023-03-02T22:03:02.918Z,165.10
2023-03-02T22:09:11.429Z,150.70
2023-03-02T22:11:41.642Z,164.60
2023-03-02T22:14:17.996Z,139.50
2023-03-02T22:20:55.742Z,136.60
2023-03-02T22:23:26.450Z,146.10
2023-03-02T22:26:00.497Z,136.90
2023-03-02T22:28:58.240Z,141.10
2023-03-02T22:31:25.591Z,121.50
2023-03-02T22:33:53.309Z,139.50
2023-03-02T22:36:42.094Z,124.80
2023-03-02T22:46:28.502Z,112.70
2023-03-02T22:48:58.336Z,127.10
2023-03-02T22:51:48.077Z,114.10
2023-03-02T22:54:37.815Z,105.10
2023-03-02T22:57:21.414Z,120.50
2023-03-02T22:59:48.754Z,123.20
2023-03-02T23:02:20.474Z,115.00
2023-03-02T23:04:48.272Z,116.80
2023-03-02T23:07:21.001Z,131.30
2023-03-02T23:09:49.723Z,121.50
2023-03-02T23:12:27.674Z,109.70
2023-03-02T23:14:56.680Z,109.80
2023-03-02T23:17:38.152Z,110.90
2023-03-02T23:20:09.420Z,108.80
2023-03-02T23:22:38.384Z,110.10
2023-03-02T23:25:07.345Z,96.70
2023-03-02T23:27:34.824Z,110.70
2023-03-02T23:30:02.312Z,103.70
2023-03-02T23:32:29.178Z,96.50
2023-03-02T23:34:55.915Z,98.30
2023-03-02T23:37:22.837Z,96.50
2023-03-02T23:39:49.951Z,100.10
2023-03-02T23:42:16.737Z,90.40
2023-03-02T23:44:44.114Z,95.60
2023-03-02T23:47:11.069Z,89.70
2023-03-02T23:49:38.213Z,91.70
2023-03-02T23:52:05.515Z,88.20
2023-03-02T23:54:34.220Z,97.40
2023-03-02T23:57:01.015Z,90.00
2023-03-02T23:59:27.660Z,81.00
